createdAt,value
2018-10-05T00:00:40.099Z,9.50
2018-10-05T00:03:09.484Z,7.70
2018-10-05T00:05:38.789Z,8.70
2018-10-05T00:08:08.190Z,7.70
2018-10-05T00:10:37.592Z,9.20
2018-10-05T00:13:07.234Z,8.43
2018-10-05T00:15:36.607Z,9.40
2018-10-05T00:18:06.041Z,7.00
2018-10-05T00:20:35.473Z,7.17
2018-10-05T00:23:04.806Z,9.67
2018-10-05T00:25:34.207Z,11.30
2018-10-05T00:28:03.867Z,5.50
2018-10-05T00:30:33.216Z,7.17
2018-10-05T00:33:02.822Z,7.80
2018-10-05T00:35:32.224Z,8.00
2018-10-05T00:38:01.681Z,7.77
2018-10-05T00:40:30.923Z,8.10
2018-10-05T00:43:00.328Z,8.17
2018-10-05T00:45:29.732Z,14.03
2018-10-05T00:47:59.028Z,10.40
2018-10-05T00:50:28.327Z,11.80
2018-10-05T00:52:57.788Z,10.97
2018-10-05T00:55:27.234Z,8.07
2018-10-05T00:57:56.738Z,9.10
2018-10-05T01:00:26.144Z,5.57
2018-10-05T01:02:55.503Z,7.27
2018-10-05T01:05:24.944Z,8.13
2018-10-05T01:07:54.447Z,6.37
2018-10-05T01:10:23.637Z,7.63
2018-10-05T01:12:53.150Z,7.50
2018-10-05T01:15:22.556Z,9.20
2018-10-05T01:17:51.956Z,6.93
2018-10-05T01:20:21.457Z,9.87
2018-10-05T01:22:50.961Z,8.73
2018-10-05T01:25:20.255Z,6.93
2018-10-05T01:27:49.560Z,10.00
2018-10-05T01:30:18.963Z,5.43
2018-10-05T01:32:48.364Z,9.27
2018-10-05T01:35:17.765Z,5.97
2018-10-05T01:37:47.222Z,7.43
2018-10-05T01:40:16.570Z,6.90
2018-10-05T01:42:45.776Z,8.13
2018-10-05T01:45:15.169Z,8.03
2018-10-05T01:47:44.579Z,8.67
2018-10-05T01:50:13.869Z,6.93
2018-10-05T01:52:43.171Z,7.77
2018-10-05T01:55:12.570Z,6.67
2018-10-05T01:57:42.074Z,5.83
2018-10-05T02:00:11.579Z,8.07
2018-10-05T02:02:41.337Z,7.47
2018-10-05T02:05:10.945Z,6.70
2018-10-05T02:07:40.399Z,9.60
2018-10-05T02:10:09.818Z,13.53
2018-10-05T02:12:39.202Z,12.23
2018-10-05T02:15:08.605Z,6.17
2018-10-05T02:17:38.006Z,8.40
2018-10-05T02:20:07.305Z,9.07
2018-10-05T02:22:36.810Z,6.40
2018-10-05T02:25:06.103Z,7.07
2018-10-05T02:27:36.126Z,9.77
2018-10-05T02:30:05.527Z,7.50
2018-10-05T02:32:34.930Z,7.20
2018-10-05T02:35:04.698Z,5.27
2018-10-05T02:37:34.042Z,7.63
2018-10-05T02:40:03.287Z,6.83
2018-10-05T02:42:32.641Z,7.93
2018-10-05T02:45:01.938Z,7.17
2018-10-05T02:47:31.236Z,5.33
2018-10-05T02:50:00.641Z,7.07
2018-10-05T02:52:30.144Z,6.73
2018-10-05T02:54:59.549Z,7.43
2018-10-05T02:57:28.845Z,7.23
2018-10-05T02:59:58.238Z,9.90
2018-10-05T03:02:31.791Z,10.43
2018-10-05T03:05:01.152Z,71.30
2018-10-05T03:07:31.242Z,142.90
2018-10-05T03:10:01.911Z,102.93
2018-10-05T03:12:31.398Z,113.07
2018-10-05T03:15:00.801Z,124.07
2018-10-05T03:17:30.201Z,137.13
2018-10-05T03:19:59.599Z,120.60
2018-10-05T03:22:28.799Z,127.13
2018-10-05T03:24:58.040Z,119.17
2018-10-05T03:27:27.400Z,132.33
2018-10-05T03:29:56.802Z,106.17
2018-10-05T03:32:26.102Z,90.57
2018-10-05T03:34:55.503Z,77.03
2018-10-05T03:37:25.419Z,27.17
2018-10-05T03:39:55.535Z,21.80
2018-10-05T03:42:24.936Z,10.30
2018-10-05T03:44:54.239Z,8.63
2018-10-05T03:47:23.740Z,7.80
2018-10-05T03:49:53.144Z,9.13
2018-10-05T03:52:22.543Z,8.07
2018-10-05T03:54:51.844Z,7.60
2018-10-05T03:57:21.028Z,7.57
2018-10-05T03:59:50.444Z,7.93
2018-10-05T04:02:19.844Z,22.63
2018-10-05T04:04:49.245Z,18.30
2018-10-05T04:07:18.547Z,33.37
2018-10-05T04:09:47.950Z,24.30
2018-10-05T04:12:17.348Z,23.80
2018-10-05T04:14:46.652Z,36.00
2018-10-05T04:17:16.049Z,52.60
2018-10-05T04:19:45.530Z,39.03
2018-10-05T04:22:19.154Z,14.13
2018-10-05T04:24:48.556Z,77.13
2018-10-05T04:27:18.032Z,56.70
2018-10-05T04:29:47.462Z,85.97
2018-10-05T04:32:16.779Z,50.07
2018-10-05T04:34:46.374Z,71.43
2018-10-05T04:37:16.078Z,82.70
2018-10-05T04:39:45.404Z,71.60
2018-10-05T04:42:14.777Z,33.97
2018-10-05T04:44:43.990Z,53.80
2018-10-05T04:47:13.786Z,30.83
2018-10-05T04:49:43.202Z,27.17
2018-10-05T04:52:12.496Z,9.37
2018-10-05T04:54:41.774Z,9.93
2018-10-05T04:57:11.191Z,16.77
2018-10-05T04:59:40.494Z,15.40
2018-10-05T05:02:09.889Z,7.50
2018-10-05T05:04:39.394Z,7.33
2018-10-05T05:07:09.001Z,7.00
2018-10-05T05:09:38.402Z,6.27
2018-10-05T05:12:07.866Z,6.47
2018-10-05T05:14:37.417Z,7.60
2018-10-05T05:17:06.927Z,6.17
2018-10-05T05:19:36.376Z,9.23
2018-10-05T05:22:05.869Z,13.70
2018-10-05T05:24:35.326Z,18.57
2018-10-05T05:27:04.831Z,15.20
2018-10-05T05:29:34.232Z,10.93
2018-10-05T05:32:03.736Z,14.53
2018-10-05T05:34:33.070Z,7.70
2018-10-05T05:37:02.437Z,8.20
2018-10-05T05:39:31.838Z,10.10
2018-10-05T05:42:01.168Z,11.30
2018-10-05T05:44:30.440Z,12.00
2018-10-05T05:46:59.877Z,6.97
2018-10-05T05:49:29.137Z,7.70
2018-10-05T05:51:58.549Z,8.10
2018-10-05T05:54:27.959Z,8.53
2018-10-05T05:56:57.136Z,9.83
2018-10-05T05:59:26.641Z,14.87
2018-10-05T06:01:56.117Z,20.60
2018-10-05T06:04:25.548Z,17.73
2018-10-05T06:06:54.951Z,19.00
2018-10-05T06:09:24.351Z,17.30
2018-10-05T06:11:53.649Z,17.23
2018-10-05T06:14:22.952Z,24.90
2018-10-05T06:16:52.353Z,14.60
2018-10-05T06:19:21.757Z,15.97
2018-10-05T06:21:51.302Z,20.80
2018-10-05T06:24:20.557Z,10.17
2018-10-05T06:26:49.961Z,16.57
2018-10-05T06:29:19.363Z,42.60
2018-10-05T06:31:48.865Z,20.90
2018-10-05T06:34:18.473Z,25.97
2018-10-05T06:36:47.782Z,29.03
2018-10-05T06:39:17.174Z,22.50
2018-10-05T06:41:46.788Z,28.70
2018-10-05T06:44:16.074Z,21.23
2018-10-05T06:46:45.583Z,25.10
2018-10-05T06:49:14.985Z,19.13
2018-10-05T06:51:44.386Z,40.83
2018-10-05T06:54:13.686Z,13.30
2018-10-05T06:56:42.990Z,25.93
2018-10-05T06:59:12.494Z,14.77
2018-10-05T07:01:42.025Z,12.17
2018-10-05T07:04:11.396Z,12.17
2018-10-05T07:06:40.797Z,6.00
2018-10-05T07:09:10.097Z,5.00
2018-10-05T07:11:39.349Z,4.70
2018-10-05T07:14:08.798Z,5.00
2018-10-05T07:16:38.180Z,5.77
2018-10-05T07:19:07.703Z,4.70
2018-10-05T07:21:37.106Z,5.23
2018-10-05T07:24:06.507Z,5.13
2018-10-05T07:26:35.842Z,4.63
2018-10-05T07:29:05.209Z,4.33
2018-10-05T07:31:34.448Z,4.87
2018-10-05T07:34:03.967Z,5.27
2018-10-05T07:36:33.416Z,4.67
2018-10-05T07:39:02.815Z,4.90
2018-10-05T07:41:32.217Z,4.57
2018-10-05T07:44:01.704Z,4.23
2018-10-05T07:46:31.328Z,4.00
2018-10-05T07:49:00.730Z,4.07
2018-10-05T07:51:30.951Z,5.37
2018-10-05T07:54:00.176Z,4.50
2018-10-05T07:56:29.651Z,4.83
2018-10-05T07:58:58.955Z,5.30
2018-10-05T08:01:28.361Z,6.10
2018-10-05T08:03:57.754Z,6.13
2018-10-05T08:06:26.935Z,7.63
2018-10-05T08:08:56.354Z,8.00
2018-10-05T08:11:25.756Z,7.07
2018-10-05T08:13:55.156Z,7.40
2018-10-05T08:16:24.451Z,7.80
2018-10-05T08:18:53.858Z,7.57
2018-10-05T08:21:23.166Z,7.30
2018-10-05T08:23:52.629Z,7.33
2018-10-05T08:26:21.860Z,7.30
2018-10-05T08:28:51.157Z,6.50
2018-10-05T08:31:20.560Z,5.80
2018-10-05T08:33:50.002Z,6.90
2018-10-05T08:36:19.361Z,5.07
2018-10-05T08:38:48.699Z,5.93
2018-10-05T08:41:18.065Z,4.07
2018-10-05T08:43:47.368Z,4.23
2018-10-05T08:46:16.766Z,4.73
2018-10-05T08:48:46.169Z,5.73
2018-10-05T08:51:15.569Z,5.33
2018-10-05T08:53:44.971Z,4.37
2018-10-05T08:56:14.165Z,6.70
2018-10-05T08:58:43.406Z,3.77
2018-10-05T09:01:12.768Z,3.60
2018-10-05T09:03:42.167Z,3.87
2018-10-05T09:06:11.570Z,3.50
2018-10-05T09:08:40.867Z,5.10
2018-10-05T09:11:10.386Z,4.63
2018-10-05T09:13:39.879Z,6.77
2018-10-05T09:16:09.233Z,4.80
2018-10-05T09:18:38.886Z,4.90
2018-10-05T09:21:08.399Z,4.07
2018-10-05T09:23:37.793Z,8.30
2018-10-05T09:26:07.092Z,4.37
2018-10-05T09:28:36.780Z,5.43
2018-10-05T09:31:06.207Z,5.07
2018-10-05T09:33:35.520Z,4.50
2018-10-05T09:36:05.011Z,4.87
2018-10-05T09:38:34.460Z,8.50
2018-10-05T09:41:03.712Z,6.03
2018-10-05T09:43:33.114Z,5.90
2018-10-05T09:46:02.618Z,8.07
2018-10-05T09:48:32.126Z,6.10
2018-10-05T09:51:01.628Z,7.10
2018-10-05T09:53:31.028Z,7.22
2018-10-05T09:56:00.430Z,5.05
2018-10-05T09:58:29.833Z,7.00
2018-10-05T10:02:08.253Z,7.67
2018-10-05T10:04:37.733Z,5.53
2018-10-05T10:07:07.151Z,6.50
2018-10-05T10:09:36.661Z,5.75
2018-10-05T10:12:06.171Z,9.90
2018-10-05T10:14:40.330Z,7.25
2018-10-05T10:17:09.597Z,5.90
2018-10-05T10:19:39.081Z,8.18
2018-10-05T10:22:08.692Z,6.55
2018-10-05T10:24:38.194Z,8.58
2018-10-05T10:27:07.593Z,7.37
2018-10-05T10:29:37.098Z,6.22
2018-10-05T10:32:06.705Z,6.97
2018-10-05T10:34:36.159Z,8.03
2018-10-05T10:37:05.597Z,8.05
2018-10-05T10:39:34.857Z,5.10
2018-10-05T10:42:04.224Z,6.42
2018-10-05T10:44:33.716Z,5.17
2018-10-05T10:47:03.091Z,7.00
2018-10-05T10:49:32.518Z,6.47
2018-10-05T10:52:02.023Z,7.05
2018-10-05T10:54:31.527Z,5.87
2018-10-05T10:57:01.032Z,6.35
2018-10-05T10:59:30.432Z,6.95
2018-10-05T11:02:00.043Z,7.95
2018-10-05T11:04:29.491Z,4.97
2018-10-05T11:06:58.843Z,5.20
2018-10-05T11:09:28.143Z,6.92
2018-10-05T11:11:57.544Z,6.60
2018-10-05T11:14:26.850Z,8.98
2018-10-05T11:16:56.320Z,6.92
2018-10-05T11:19:25.669Z,7.70
2018-10-05T11:21:55.049Z,9.40
2018-10-05T11:24:24.277Z,6.87
2018-10-05T11:26:53.752Z,5.75
2018-10-05T11:29:23.151Z,6.80
2018-10-05T11:31:52.452Z,6.20
2018-10-05T11:34:21.930Z,5.85
2018-10-05T11:36:51.356Z,6.00
2018-10-05T11:39:20.760Z,6.92
2018-10-05T11:41:49.988Z,4.78
2018-10-05T11:44:19.467Z,7.47
2018-10-05T11:46:48.862Z,7.65
2018-10-05T11:49:18.265Z,10.72
2018-10-05T11:51:48.075Z,6.58
2018-10-05T11:54:17.579Z,7.35
2018-10-05T11:56:47.156Z,7.40
2018-10-05T11:59:16.587Z,6.35
2018-10-05T12:01:46.121Z,5.75
2018-10-05T12:04:15.495Z,6.95
2018-10-05T12:06:45.073Z,6.00
2018-10-05T12:09:14.306Z,4.80
2018-10-05T12:11:43.644Z,4.53
2018-10-05T12:14:13.103Z,5.45
2018-10-05T12:16:42.504Z,4.25
2018-10-05T12:19:11.714Z,5.45
2018-10-05T12:21:41.220Z,5.33
2018-10-05T12:24:10.711Z,3.90
2018-10-05T12:26:40.254Z,4.10
2018-10-05T12:29:09.719Z,3.37
2018-10-05T12:31:39.121Z,4.78
2018-10-05T12:34:08.625Z,4.65
2018-10-05T12:36:38.077Z,4.55
2018-10-05T12:39:08.519Z,4.72
2018-10-05T12:41:38.636Z,4.45
2018-10-05T12:44:08.497Z,6.08
2018-10-05T12:46:38.217Z,4.42
2018-10-05T12:49:07.601Z,4.22
2018-10-05T12:51:36.996Z,2.98
2018-10-05T12:54:06.503Z,6.28
2018-10-05T12:56:35.905Z,6.65
2018-10-05T12:59:05.409Z,4.97
2018-10-05T13:01:34.913Z,4.72
2018-10-05T13:04:04.418Z,4.28
2018-10-05T13:06:33.845Z,2.98
2018-10-05T13:09:03.528Z,3.75
2018-10-05T13:11:33.133Z,4.03
2018-10-05T13:14:02.844Z,2.75
2018-10-05T13:16:32.245Z,3.62
2018-10-05T13:19:00.622Z,4.58
2018-10-05T13:21:29.901Z,3.60
2018-10-05T13:23:59.236Z,3.10
2018-10-05T13:26:28.532Z,2.40
2018-10-05T13:28:57.922Z,5.85
2018-10-05T13:31:27.236Z,3.65
2018-10-05T13:33:56.656Z,4.97
2018-10-05T13:36:26.031Z,3.27
2018-10-05T13:38:55.525Z,5.65
2018-10-05T13:41:24.928Z,7.92
2018-10-05T13:43:54.636Z,4.03
2018-10-05T13:46:24.111Z,4.92
2018-10-05T13:48:53.646Z,3.87
2018-10-05T13:51:23.147Z,4.55
2018-10-05T13:53:52.552Z,5.75
2018-10-05T13:56:21.949Z,4.60
2018-10-05T13:58:51.583Z,3.98
2018-10-05T14:01:21.167Z,5.15
2018-10-05T14:03:50.523Z,3.20
2018-10-05T14:06:19.975Z,3.33
2018-10-05T14:08:49.370Z,4.03
2018-10-05T14:11:18.582Z,5.22
2018-10-05T14:13:47.971Z,4.12
2018-10-05T14:16:17.380Z,4.60
2018-10-05T14:18:46.776Z,4.30
2018-10-05T14:21:16.280Z,3.10
2018-10-05T14:23:45.639Z,3.83
2018-10-05T14:26:15.196Z,2.40
2018-10-05T14:28:44.691Z,2.15
2018-10-05T14:31:13.005Z,3.65
2018-10-05T14:33:42.268Z,1.90
2018-10-05T14:36:11.770Z,3.42
2018-10-05T14:38:40.976Z,3.22
2018-10-05T14:41:10.472Z,2.75
2018-10-05T14:43:39.873Z,3.80
2018-10-05T14:46:09.380Z,2.60
2018-10-05T14:48:38.779Z,3.33
2018-10-05T14:51:08.385Z,3.40
2018-10-05T14:53:37.687Z,3.65
2018-10-05T14:56:06.923Z,2.33
2018-10-05T14:58:36.389Z,2.55
2018-10-05T15:01:05.789Z,3.08
2018-10-05T15:03:35.089Z,1.77
2018-10-05T15:06:04.434Z,2.08
2018-10-05T15:08:33.789Z,3.02
2018-10-05T15:11:03.186Z,3.12
2018-10-05T15:13:32.608Z,1.40
2018-10-05T15:16:01.915Z,3.40
2018-10-05T15:18:31.191Z,4.60
2018-10-05T15:21:00.699Z,1.40
2018-10-05T15:23:30.099Z,3.50
2018-10-05T15:25:59.398Z,3.47
2018-10-05T15:28:28.603Z,3.95
2018-10-05T15:30:57.998Z,3.70
2018-10-05T15:33:27.403Z,1.85
2018-10-05T15:35:56.700Z,1.80
2018-10-05T15:38:26.205Z,2.05
2018-10-05T15:40:55.708Z,2.70
2018-10-05T15:43:25.350Z,3.65
2018-10-05T15:46:00.151Z,5.25
2018-10-05T15:48:29.531Z,4.72
2018-10-05T15:50:58.948Z,2.83
2018-10-05T15:53:28.352Z,2.22
2018-10-05T15:55:57.707Z,3.40
2018-10-05T15:58:27.901Z,2.22
2018-10-05T16:00:57.480Z,2.98
2018-10-05T16:03:27.017Z,3.12
2018-10-05T16:05:56.616Z,6.08
2018-10-05T16:08:25.915Z,5.50
2018-10-05T16:11:01.847Z,6.35
2018-10-05T16:13:31.248Z,2.90
2018-10-05T16:16:00.652Z,5.17
2018-10-05T16:18:29.855Z,6.47
2018-10-05T16:20:59.248Z,7.78
2018-10-05T16:23:28.424Z,6.00
2018-10-05T16:25:57.883Z,5.17
2018-10-05T16:28:27.250Z,9.30
2018-10-05T16:31:00.836Z,8.68
2018-10-05T16:33:30.253Z,4.67
2018-10-05T16:35:59.757Z,6.37
2018-10-05T16:38:29.237Z,5.97
2018-10-05T16:40:58.666Z,3.77
2018-10-05T16:43:28.065Z,4.47
2018-10-05T16:45:57.467Z,6.47
2018-10-05T16:48:26.802Z,3.87
2018-10-05T16:50:56.270Z,5.37
2018-10-05T16:53:25.775Z,4.43
2018-10-05T16:55:56.611Z,4.07
2018-10-05T16:58:25.807Z,5.90
2018-10-05T17:00:55.135Z,5.37
2018-10-05T17:03:24.410Z,4.57
2018-10-05T17:05:54.833Z,4.27
2018-10-05T17:08:24.131Z,3.30
2018-10-05T17:10:53.542Z,3.37
2018-10-05T17:13:22.754Z,3.33
2018-10-05T17:15:52.133Z,2.47
2018-10-05T17:18:21.350Z,4.10
2018-10-05T17:20:50.703Z,4.10
2018-10-05T17:23:20.027Z,4.57
2018-10-05T17:25:49.434Z,3.03
2018-10-05T17:28:18.750Z,4.07
2018-10-05T17:30:48.237Z,3.23
2018-10-05T17:33:17.641Z,4.50
2018-10-05T17:35:47.053Z,5.33
2018-10-05T17:38:16.444Z,8.47
2018-10-05T17:40:45.845Z,4.43
2018-10-05T17:43:15.285Z,5.57
2018-10-05T17:45:44.961Z,10.33
2018-10-05T17:48:16.406Z,4.27
2018-10-05T17:50:45.911Z,3.40
2018-10-05T17:53:16.202Z,7.17
2018-10-05T17:55:46.119Z,3.70
2018-10-05T17:58:15.608Z,10.10
2018-10-05T18:00:47.103Z,4.33
2018-10-05T18:03:16.506Z,4.37
2018-10-05T18:05:46.208Z,5.23
2018-10-05T18:08:15.732Z,4.53
2018-10-05T18:10:45.429Z,4.00
2018-10-05T18:13:14.730Z,6.13
2018-10-05T18:15:44.231Z,4.13
2018-10-05T18:18:13.840Z,3.93
2018-10-05T18:20:43.235Z,3.70
2018-10-05T18:23:13.154Z,3.50
2018-10-05T18:25:43.683Z,4.63
2018-10-05T18:28:13.021Z,4.10
2018-10-05T18:30:42.395Z,6.03
2018-10-05T18:33:13.013Z,5.07
2018-10-05T18:35:42.928Z,7.13
2018-10-05T18:38:13.096Z,5.00
2018-10-05T18:40:42.961Z,5.00
2018-10-05T18:43:13.425Z,5.13
2018-10-05T18:45:42.687Z,5.90
2018-10-05T18:48:11.981Z,5.17
2018-10-05T18:50:41.492Z,7.47
2018-10-05T18:53:11.202Z,7.33
2018-10-05T18:55:40.601Z,7.43
2018-10-05T18:58:10.070Z,8.17
2018-10-05T19:00:39.559Z,8.30
2018-10-05T19:03:09.012Z,6.30
2018-10-05T19:05:38.517Z,8.40
2018-10-05T19:08:08.020Z,8.83
2018-10-05T19:10:38.461Z,7.77
2018-10-05T19:13:09.078Z,7.60
2018-10-05T19:15:38.786Z,9.97
2018-10-05T19:18:10.655Z,10.70
2018-10-05T19:20:40.253Z,7.50
2018-10-05T19:23:09.757Z,6.77
2018-10-05T19:25:39.224Z,8.33
2018-10-05T19:28:08.560Z,8.77
2018-10-05T19:30:38.027Z,8.80
2018-10-05T19:33:07.468Z,7.00
2018-10-05T19:35:36.755Z,7.80
2018-10-05T19:38:06.374Z,9.40
2018-10-05T19:40:35.987Z,6.73
2018-10-05T19:43:05.483Z,7.50
2018-10-05T19:45:34.988Z,7.13
2018-10-05T19:48:04.441Z,10.27
2018-10-05T19:50:33.793Z,8.97
2018-10-05T19:53:03.238Z,8.60
2018-10-05T19:55:33.825Z,12.67
2018-10-05T19:58:03.331Z,9.43
2018-10-05T20:00:32.731Z,11.13
2018-10-05T20:03:02.236Z,11.97
2018-10-05T20:05:31.547Z,9.93
2018-10-05T20:08:00.863Z,9.37
2018-10-05T20:10:30.307Z,10.60
2018-10-05T20:12:59.899Z,14.73
2018-10-05T20:15:29.348Z,13.23
2018-10-05T20:17:58.978Z,12.57
2018-10-05T20:20:28.254Z,12.03
2018-10-05T20:22:57.948Z,13.57
2018-10-05T20:25:27.181Z,9.93
2018-10-05T20:27:56.552Z,9.73
2018-10-05T20:30:25.771Z,11.87
2018-10-05T20:32:55.367Z,17.27
2018-10-05T20:35:24.974Z,14.00
2018-10-05T20:37:54.495Z,10.23
2018-10-05T20:40:23.884Z,9.20
2018-10-05T20:42:53.196Z,9.00
2018-10-05T20:45:22.786Z,10.87
2018-10-05T20:47:52.271Z,8.07
2018-10-05T20:50:21.556Z,10.27
2018-10-05T20:52:50.935Z,11.87
2018-10-05T20:55:20.293Z,8.80
2018-10-05T20:57:49.972Z,8.50
2018-10-05T21:00:19.404Z,9.03
2018-10-05T21:02:48.909Z,9.97
2018-10-05T21:05:18.208Z,7.77
2018-10-05T21:07:47.609Z,9.10
2018-10-05T21:10:17.591Z,9.10
2018-10-05T21:12:47.131Z,9.17
2018-10-05T21:15:16.462Z,8.83
2018-10-05T21:17:45.831Z,8.73
2018-10-05T21:20:16.631Z,9.20
2018-10-05T21:22:46.170Z,9.63
2018-10-05T21:25:15.859Z,8.43
2018-10-05T21:27:45.290Z,8.53
2018-10-05T21:30:14.889Z,8.00
2018-10-05T21:32:44.572Z,12.27
2018-10-05T21:35:14.205Z,14.77
2018-10-05T21:37:43.639Z,12.07
2018-10-05T21:40:13.218Z,8.47
2018-10-05T21:42:42.820Z,9.50
2018-10-05T21:45:13.453Z,10.17
2018-10-05T21:47:45.018Z,11.87
2018-10-05T21:50:14.521Z,8.50
2018-10-05T21:52:44.012Z,10.10
2018-10-05T21:55:13.518Z,8.03
2018-10-05T21:57:43.097Z,10.93
2018-10-05T22:00:12.730Z,8.53
2018-10-05T22:02:42.229Z,9.03
2018-10-05T22:05:11.496Z,8.10
2018-10-05T22:07:41.138Z,8.73
2018-10-05T22:10:11.462Z,8.37
2018-10-05T22:12:40.933Z,8.30
2018-10-05T22:15:10.249Z,8.70
2018-10-05T22:17:39.771Z,7.10
2018-10-05T22:20:10.256Z,6.30
2018-10-05T22:22:39.746Z,7.70
2018-10-05T22:25:09.066Z,10.40
2018-10-05T22:27:38.708Z,10.17
2018-10-05T22:30:08.570Z,8.57
2018-10-05T22:32:38.025Z,8.37
2018-10-05T22:35:07.479Z,6.97
2018-10-05T22:37:36.890Z,7.47
2018-10-05T22:40:06.434Z,8.40
2018-10-05T22:42:36.143Z,8.60
2018-10-05T22:45:05.548Z,7.90
2018-10-05T22:47:34.945Z,7.77
2018-10-05T22:50:04.450Z,5.90
2018-10-05T22:52:33.861Z,7.73
2018-10-05T22:55:03.358Z,7.73
2018-10-05T22:57:32.863Z,7.43
2018-10-05T23:00:02.469Z,6.67
2018-10-05T23:02:32.048Z,9.03
2018-10-05T23:05:01.390Z,8.53
2018-10-05T23:07:31.083Z,7.63
2018-10-05T23:10:00.391Z,8.03
2018-10-05T23:12:29.960Z,6.47
2018-10-05T23:14:59.503Z,6.37
2018-10-05T23:17:28.815Z,6.13
2018-10-05T23:19:58.298Z,7.10
2018-10-05T23:22:28.928Z,7.43
2018-10-05T23:24:58.415Z,7.77
2018-10-05T23:27:28.244Z,8.73
2018-10-05T23:29:57.696Z,7.10
2018-10-05T23:32:28.174Z,5.90
2018-10-05T23:34:57.576Z,5.43
2018-10-05T23:37:27.080Z,7.33
2018-10-05T23:39:56.788Z,6.63
2018-10-05T23:42:26.293Z,6.73
2018-10-05T23:44:55.741Z,5.33
2018-10-05T23:47:25.095Z,8.10
2018-10-05T23:49:54.548Z,6.23
2018-10-05T23:52:37.168Z,6.80
2018-10-05T23:55:07.023Z,7.67
2018-10-05T23:57:37.197Z,7.90
